createdAt,value
2017-11-13T00:02:25.542Z,92.40
2017-11-13T00:04:56.741Z,92.60
2017-11-13T00:07:26.810Z,92.50
2017-11-13T00:09:57.582Z,92.50
2017-11-13T00:12:27.095Z,92.50
2017-11-13T00:14:59.126Z,92.70
2017-11-13T00:17:28.504Z,92.70
2017-11-13T00:20:01.310Z,92.50
2017-11-13T00:22:30.621Z,92.60
2017-11-13T00:25:00.052Z,92.70
2017-11-13T00:27:29.567Z,92.40
2017-11-13T00:30:08.128Z,92.50
2017-11-13T00:32:37.924Z,92.50
2017-11-13T00:35:07.342Z,92.30
2017-11-13T00:37:36.513Z,92.20
2017-11-13T00:40:05.794Z,92.40
2017-11-13T00:42:35.040Z,92.10
2017-11-13T00:45:04.722Z,92.00
2017-11-13T00:47:35.106Z,92.10
2017-11-13T00:50:04.719Z,92.00
2017-11-13T00:52:34.436Z,91.90
2017-11-13T00:55:05.703Z,92.00
2017-11-13T00:57:35.961Z,92.00
2017-11-13T01:00:06.509Z,92.00
2017-11-13T01:02:36.498Z,91.90
2017-11-13T01:05:07.018Z,91.90
2017-11-13T01:07:38.751Z,91.80
2017-11-13T01:10:09.636Z,92.00
2017-11-13T01:12:39.193Z,91.90
2017-11-13T01:15:09.024Z,91.90
2017-11-13T01:17:39.742Z,92.00
2017-11-13T01:20:09.291Z,92.00
2017-11-13T01:22:39.337Z,92.00
2017-11-13T01:25:09.528Z,92.10
2017-11-13T01:27:38.858Z,92.10
2017-11-13T01:30:09.214Z,92.10
2017-11-13T01:32:38.855Z,92.30
2017-11-13T01:35:08.514Z,92.30
2017-11-13T01:37:38.286Z,92.40
2017-11-13T01:40:07.973Z,92.40
2017-11-13T01:42:37.766Z,92.40
2017-11-13T01:45:07.894Z,92.50
2017-11-13T01:47:37.693Z,92.60
2017-11-13T01:50:07.067Z,92.50
2017-11-13T01:52:37.119Z,92.60
2017-11-13T01:55:06.803Z,92.90
2017-11-13T01:57:43.837Z,92.50
2017-11-13T02:00:15.024Z,92.50
2017-11-13T02:02:44.814Z,92.60
2017-11-13T02:05:14.404Z,92.60
2017-11-13T02:07:44.398Z,92.70
2017-11-13T02:10:14.121Z,92.80
2017-11-13T02:12:43.501Z,92.90
2017-11-13T02:15:12.736Z,92.60
2017-11-13T02:17:42.272Z,92.70
2017-11-13T02:20:11.550Z,92.70
2017-11-13T02:22:40.979Z,92.60
2017-11-13T02:25:10.801Z,92.70
2017-11-13T02:27:40.935Z,92.70
2017-11-13T02:30:10.216Z,92.70
2017-11-13T02:32:40.414Z,92.60
2017-11-13T02:35:09.693Z,92.60
2017-11-13T02:37:39.062Z,92.60
2017-11-13T02:40:08.548Z,92.50
2017-11-13T02:42:38.395Z,92.60
2017-11-13T02:45:07.777Z,92.50
2017-11-13T02:47:37.070Z,92.60
2017-11-13T02:50:06.883Z,92.80
2017-11-13T02:52:36.369Z,92.90
2017-11-13T02:55:06.033Z,92.80
2017-11-13T02:57:35.690Z,92.70
2017-11-13T03:00:05.233Z,92.70
2017-11-13T03:02:34.493Z,92.70
2017-11-13T03:05:04.335Z,92.80
2017-11-13T03:07:33.617Z,92.80
2017-11-13T03:10:02.866Z,92.80
2017-11-13T03:12:32.236Z,92.80
2017-11-13T03:15:01.706Z,92.70
2017-11-13T03:17:31.595Z,92.70
2017-11-13T03:20:01.328Z,92.70
2017-11-13T03:22:30.534Z,92.70
2017-11-13T03:25:00.492Z,92.40
2017-11-13T03:27:29.990Z,92.40
2017-11-13T03:29:59.561Z,92.40
2017-11-13T03:32:28.748Z,92.30
2017-11-13T03:34:58.085Z,92.20
2017-11-13T03:37:27.277Z,92.30
2017-11-13T03:39:56.622Z,92.30
2017-11-13T03:42:26.662Z,92.20
2017-11-13T03:44:56.745Z,92.30
2017-11-13T03:47:26.212Z,92.20
2017-11-13T03:49:55.992Z,92.20
2017-11-13T03:52:25.349Z,92.30
2017-11-13T03:54:54.513Z,92.40
2017-11-13T03:57:23.833Z,92.50
2017-11-13T03:59:52.993Z,92.60
2017-11-13T04:02:22.220Z,92.80
2017-11-13T04:04:52.290Z,92.80
2017-11-13T04:07:21.876Z,92.80
2017-11-13T04:09:51.030Z,92.70
2017-11-13T04:12:21.005Z,92.50
2017-11-13T04:14:54.872Z,92.50
2017-11-13T04:17:30.638Z,92.60
2017-11-13T04:20:00.186Z,92.60
2017-11-13T04:22:29.346Z,92.60
2017-11-13T04:24:58.615Z,92.50
2017-11-13T04:27:29.278Z,92.50
2017-11-13T04:29:58.943Z,92.40
2017-11-13T04:32:29.468Z,92.70
2017-11-13T04:34:58.672Z,92.70
2017-11-13T04:37:29.276Z,92.80
2017-11-13T04:40:00.235Z,92.80
2017-11-13T04:42:29.471Z,92.80
2017-11-13T04:44:58.700Z,92.80
2017-11-13T04:47:28.206Z,92.90
2017-11-13T04:49:57.451Z,93.00
2017-11-13T04:52:27.026Z,93.00
2017-11-13T04:54:56.287Z,93.00
2017-11-13T04:57:25.815Z,93.00
2017-11-13T04:59:55.084Z,93.00
2017-11-13T05:02:25.837Z,92.90
2017-11-13T05:04:55.369Z,93.00
2017-11-13T05:07:24.879Z,92.80
2017-11-13T05:09:54.164Z,92.90
2017-11-13T05:12:23.592Z,93.00
2017-11-13T05:14:52.811Z,93.10
2017-11-13T05:17:22.781Z,93.20
2017-11-13T05:19:51.979Z,93.20
2017-11-13T05:22:21.763Z,93.20
2017-11-13T05:24:51.065Z,93.30
2017-11-13T05:27:20.283Z,93.40
2017-11-13T05:29:49.462Z,93.30
2017-11-13T05:32:19.440Z,93.20
2017-11-13T05:34:48.927Z,93.10
2017-11-13T05:37:18.217Z,93.00
2017-11-13T05:39:47.562Z,93.00
2017-11-13T05:42:16.772Z,93.20
2017-11-13T05:44:45.976Z,93.10
2017-11-13T05:47:15.210Z,93.10
2017-11-13T05:49:44.410Z,93.20
2017-11-13T05:52:13.801Z,93.20
2017-11-13T05:54:43.289Z,93.20
2017-11-13T05:57:13.366Z,93.30
2017-11-13T05:59:43.747Z,93.30
2017-11-13T06:02:12.975Z,93.30
2017-11-13T06:04:42.942Z,93.30
2017-11-13T06:07:12.176Z,93.20
2017-11-13T06:09:41.693Z,93.30
2017-11-13T06:12:12.602Z,93.50
2017-11-13T06:14:42.875Z,93.40
2017-11-13T06:17:12.313Z,93.50
2017-11-13T06:19:41.852Z,93.50
2017-11-13T06:22:11.329Z,93.50
2017-11-13T06:24:40.908Z,93.40
2017-11-13T06:27:10.436Z,93.40
2017-11-13T06:29:39.936Z,93.50
2017-11-13T06:32:09.486Z,93.50
2017-11-13T06:34:38.886Z,93.70
2017-11-13T06:37:08.507Z,93.70
2017-11-13T06:39:39.186Z,93.60
2017-11-13T06:42:08.498Z,93.60
2017-11-13T06:44:38.228Z,93.50
2017-11-13T06:47:08.013Z,93.50
2017-11-13T06:49:37.428Z,93.60
2017-11-13T06:52:06.714Z,93.40
2017-11-13T06:54:36.045Z,93.40
2017-11-13T06:57:05.370Z,93.20
2017-11-13T06:59:35.025Z,93.20
2017-11-13T07:02:04.587Z,93.10
2017-11-13T07:04:34.204Z,93.20
2017-11-13T07:07:03.630Z,93.30
2017-11-13T07:09:33.043Z,93.40
2017-11-13T07:12:02.408Z,93.30
2017-11-13T07:14:32.626Z,93.00
2017-11-13T07:17:01.943Z,93.00
2017-11-13T07:19:31.310Z,93.10
2017-11-13T07:22:00.704Z,92.90
2017-11-13T07:24:30.080Z,92.80
2017-11-13T07:27:00.091Z,92.90
2017-11-13T07:29:29.809Z,92.80
2017-11-13T07:31:58.971Z,92.80
2017-11-13T07:34:28.430Z,92.50
2017-11-13T07:36:57.852Z,92.50
2017-11-13T07:39:27.239Z,92.30
2017-11-13T07:41:56.857Z,92.00
2017-11-13T07:44:26.309Z,92.00
2017-11-13T07:46:56.602Z,91.80
2017-11-13T07:49:26.707Z,91.70
2017-11-13T07:51:56.169Z,91.60
2017-11-13T07:54:25.703Z,91.70
2017-11-13T07:56:55.199Z,91.90
2017-11-13T07:59:24.660Z,91.90
2017-11-13T08:01:53.989Z,91.70
2017-11-13T08:04:30.299Z,91.50
2017-11-13T08:07:06.864Z,91.40
2017-11-13T08:09:36.422Z,91.30
2017-11-13T08:12:05.263Z,91.10
2017-11-13T08:14:35.634Z,91.10
2017-11-13T08:17:05.454Z,91.10
2017-11-13T08:19:34.927Z,90.80
2017-11-13T08:22:04.447Z,90.50
2017-11-13T08:24:33.897Z,90.70
2017-11-13T08:27:03.977Z,90.90
2017-11-13T08:29:33.348Z,90.80
2017-11-13T08:32:03.064Z,90.60
2017-11-13T08:34:32.389Z,90.50
2017-11-13T08:37:01.816Z,90.60
2017-11-13T08:39:31.059Z,90.70
2017-11-13T08:42:00.311Z,90.60
2017-11-13T08:44:29.722Z,90.20
2017-11-13T08:46:59.084Z,90.00
2017-11-13T08:49:28.328Z,89.60
2017-11-13T08:51:57.601Z,89.20
2017-11-13T08:54:27.033Z,88.70
2017-11-13T08:56:56.340Z,88.70
2017-11-13T08:59:25.888Z,88.40
2017-11-13T09:01:55.976Z,88.00
2017-11-13T09:04:28.644Z,87.60
2017-11-13T09:06:57.892Z,87.50
2017-11-13T09:09:27.131Z,87.20
2017-11-13T09:11:56.606Z,86.50
2017-11-13T09:14:26.065Z,86.80
2017-11-13T09:16:55.980Z,86.60
2017-11-13T09:19:25.290Z,86.60
2017-11-13T09:21:55.735Z,86.40
2017-11-13T09:24:25.205Z,86.40
2017-11-13T09:26:55.356Z,86.60
2017-11-13T09:29:24.714Z,86.60
2017-11-13T09:31:53.941Z,87.00
2017-11-13T09:34:24.089Z,87.30
2017-11-13T09:36:54.014Z,87.30
2017-11-13T09:39:23.376Z,87.20
2017-11-13T09:41:52.749Z,86.50
2017-11-13T09:44:21.984Z,86.10
2017-11-13T09:46:52.174Z,84.20
2017-11-13T09:49:21.710Z,84.20
2017-11-13T09:51:51.920Z,83.70
2017-11-13T09:54:21.259Z,83.70
2017-11-13T09:56:50.671Z,83.00
2017-11-13T09:59:19.956Z,83.30
2017-11-13T10:01:49.350Z,83.80
2017-11-13T10:04:18.657Z,83.10
2017-11-13T10:06:50.407Z,82.70
2017-11-13T10:10:22.833Z,82.30
2017-11-13T10:12:52.228Z,82.20
2017-11-13T10:15:21.532Z,81.20
2017-11-13T10:17:50.899Z,80.40
2017-11-13T10:20:20.265Z,81.00
2017-11-13T10:22:49.979Z,80.80
2017-11-13T10:25:22.836Z,80.50
2017-11-13T10:27:52.588Z,80.70
2017-11-13T10:30:27.104Z,80.30
2017-11-13T10:32:57.197Z,80.40
2017-11-13T10:35:26.961Z,80.50
2017-11-13T10:37:56.282Z,80.50
2017-11-13T10:40:25.925Z,80.40
2017-11-13T10:42:55.412Z,80.60
2017-11-13T10:45:25.289Z,80.60
2017-11-13T10:47:56.797Z,79.40
2017-11-13T10:50:26.599Z,79.30
2017-11-13T10:52:55.946Z,79.60
2017-11-13T10:55:25.448Z,79.20
2017-11-13T10:57:55.673Z,77.70
2017-11-13T11:00:25.506Z,77.70
2017-11-13T11:02:55.097Z,77.00
2017-11-13T11:05:25.738Z,75.60
2017-11-13T11:07:55.224Z,76.10
2017-11-13T11:10:24.983Z,76.70
2017-11-13T11:12:54.563Z,76.90
2017-11-13T11:15:24.147Z,76.20
2017-11-13T11:17:54.387Z,76.20
2017-11-13T11:20:24.041Z,76.20
2017-11-13T11:22:53.619Z,75.80
2017-11-13T11:25:29.046Z,75.70
2017-11-13T11:28:05.945Z,73.50
2017-11-13T11:30:38.542Z,73.50
2017-11-13T11:33:08.034Z,73.90
2017-11-13T11:35:37.675Z,72.20
2017-11-13T11:38:07.117Z,69.90
2017-11-13T11:40:36.977Z,69.40
2017-11-13T11:43:06.531Z,69.20
2017-11-13T11:45:35.967Z,70.00
2017-11-13T11:48:05.410Z,69.40
2017-11-13T11:50:36.327Z,69.30
2017-11-13T11:53:05.810Z,69.40
2017-11-13T11:55:37.205Z,69.40
2017-11-13T11:58:06.900Z,69.60
2017-11-13T12:00:37.469Z,70.10
2017-11-13T12:03:06.962Z,69.80
2017-11-13T12:05:37.182Z,70.20
2017-11-13T12:08:10.478Z,69.80
2017-11-13T12:10:43.361Z,69.40
2017-11-13T12:13:14.972Z,69.10
2017-11-13T12:15:45.322Z,69.10
2017-11-13T12:18:18.167Z,68.90
2017-11-13T12:20:48.965Z,68.90
2017-11-13T12:23:20.809Z,68.80
2017-11-13T12:25:52.801Z,69.10
2017-11-13T12:28:27.353Z,69.60
2017-11-13T12:30:58.030Z,69.60
2017-11-13T12:33:29.113Z,69.80
2017-11-13T12:36:00.588Z,69.70
2017-11-13T12:38:31.051Z,69.70
2017-11-13T12:41:01.585Z,69.40
2017-11-13T12:43:31.951Z,69.20
2017-11-13T12:46:02.937Z,69.20
2017-11-13T12:48:32.898Z,70.10
2017-11-13T12:51:03.319Z,69.50
2017-11-13T12:53:33.534Z,69.50
2017-11-13T12:56:03.960Z,70.40
2017-11-13T12:58:34.266Z,70.50
2017-11-13T13:01:04.750Z,66.50
2017-11-13T13:03:34.233Z,66.50
2017-11-13T13:06:03.972Z,62.50
2017-11-13T13:08:34.589Z,62.20
2017-11-13T13:11:04.904Z,64.60
2017-11-13T13:13:34.456Z,65.60
2017-11-13T13:16:04.109Z,67.00
2017-11-13T13:18:34.581Z,66.50
2017-11-13T13:21:06.181Z,67.40
2017-11-13T13:23:37.056Z,66.40
2017-11-13T13:26:09.670Z,66.40
2017-11-13T13:28:39.957Z,62.40
2017-11-13T13:31:10.276Z,59.70
2017-11-13T13:33:44.838Z,61.30
2017-11-13T13:36:16.001Z,61.70
2017-11-13T13:38:50.570Z,64.70
2017-11-13T13:41:23.228Z,64.70
2017-11-13T13:43:53.951Z,63.60
2017-11-13T13:50:10.828Z,59.00
2017-11-13T13:52:41.457Z,56.60
2017-11-13T13:55:11.887Z,56.70
2017-11-13T13:57:43.220Z,56.40
2017-11-13T14:04:45.543Z,55.40
2017-11-13T14:07:28.440Z,57.00
2017-11-13T14:10:00.805Z,57.00
2017-11-13T14:12:38.657Z,57.90
2017-11-13T14:15:18.814Z,64.30
2017-11-13T14:17:59.272Z,64.20
2017-11-13T14:20:30.886Z,67.50
2017-11-13T14:23:02.504Z,68.80
2017-11-13T14:25:38.111Z,70.00
2017-11-13T14:28:08.663Z,69.80
2017-11-13T14:30:38.893Z,72.50
2017-11-13T14:33:09.193Z,74.30
2017-11-13T14:35:38.571Z,74.20
2017-11-13T14:38:08.607Z,75.80
2017-11-13T14:40:39.638Z,77.80
2017-11-13T14:43:09.887Z,78.70
2017-11-13T14:45:39.214Z,78.30
2017-11-13T14:48:09.365Z,77.00
2017-11-13T14:50:39.225Z,76.90
2017-11-13T14:53:08.731Z,77.50
2017-11-13T14:55:38.112Z,74.80
2017-11-13T14:58:07.879Z,75.30
2017-11-13T15:00:37.064Z,77.00
2017-11-13T15:03:07.131Z,75.60
2017-11-13T15:05:36.951Z,75.60
2017-11-13T15:08:06.337Z,74.70
2017-11-13T15:10:36.667Z,75.10
2017-11-13T15:13:06.038Z,75.10
2017-11-13T15:15:35.463Z,75.30
2017-11-13T15:18:08.939Z,75.50
2017-11-13T15:20:38.110Z,75.70
2017-11-13T15:23:08.385Z,76.90
2017-11-13T15:25:37.950Z,76.80
2017-11-13T15:28:08.148Z,77.30
2017-11-13T15:30:37.712Z,77.30
2017-11-13T15:33:07.004Z,77.80
2017-11-13T15:35:36.273Z,78.10
2017-11-13T15:38:06.731Z,79.00
2017-11-13T15:40:35.844Z,78.80
2017-11-13T15:43:05.286Z,78.90
2017-11-13T15:45:35.584Z,79.60
2017-11-13T15:48:11.951Z,79.60
2017-11-13T15:50:49.099Z,79.30
2017-11-13T15:53:18.773Z,79.80
2017-11-13T15:55:49.024Z,79.80
2017-11-13T15:58:19.600Z,79.80
2017-11-13T16:00:48.845Z,79.90
2017-11-13T16:03:18.174Z,79.70
2017-11-13T16:05:48.089Z,79.20
2017-11-13T16:08:24.652Z,78.90
2017-11-13T16:11:01.111Z,78.70
2017-11-13T16:13:31.223Z,78.70
2017-11-13T16:16:05.976Z,78.70
2017-11-13T16:18:36.299Z,78.60
2017-11-13T16:21:07.139Z,78.90
2017-11-13T16:23:44.768Z,78.80
2017-11-13T16:26:20.992Z,79.20
2017-11-13T16:28:51.266Z,79.00
2017-11-13T16:31:21.295Z,78.70
2017-11-13T16:33:51.353Z,79.70
2017-11-13T16:36:21.420Z,79.10
2017-11-13T16:38:52.546Z,79.10
2017-11-13T16:41:23.206Z,79.10
2017-11-13T16:43:53.685Z,79.50
2017-11-13T16:46:24.595Z,79.50
2017-11-13T16:48:54.497Z,79.60
2017-11-13T16:51:24.374Z,79.90
2017-11-13T16:53:56.297Z,80.30
2017-11-13T16:56:26.612Z,80.60
2017-11-13T16:58:56.791Z,80.60
2017-11-13T17:01:26.525Z,80.40
2017-11-13T17:03:57.218Z,80.90
2017-11-13T17:06:33.305Z,81.00
2017-11-13T17:09:03.623Z,81.30
2017-11-13T17:11:34.622Z,81.50
2017-11-13T17:14:04.851Z,81.40
2017-11-13T17:16:36.192Z,81.30
2017-11-13T17:19:09.533Z,80.80
2017-11-13T17:21:39.326Z,80.10
2017-11-13T17:24:09.309Z,80.30
2017-11-13T17:26:39.817Z,79.70
2017-11-13T17:29:09.606Z,79.50
2017-11-13T17:31:39.312Z,79.50
2017-11-13T17:34:10.305Z,79.50
2017-11-13T17:41:19.407Z,78.90
2017-11-13T17:43:48.935Z,78.70
2017-11-13T17:46:19.052Z,78.30
2017-11-13T17:48:49.347Z,77.50
2017-11-13T17:51:18.975Z,77.60
2017-11-13T17:53:49.808Z,77.20
2017-11-13T17:56:27.147Z,77.20
2017-11-13T17:59:03.963Z,77.20
2017-11-13T18:01:34.182Z,77.70
2017-11-13T18:04:03.826Z,77.80
2017-11-13T18:06:33.974Z,78.30
2017-11-13T18:09:04.682Z,78.30
2017-11-13T18:11:41.047Z,78.60
2017-11-13T18:14:12.318Z,79.60
2017-11-13T18:16:42.112Z,79.50
2017-11-13T18:19:12.072Z,79.60
2017-11-13T18:21:42.048Z,80.70
2017-11-13T18:24:12.118Z,81.40
2017-11-13T18:26:42.991Z,81.40
2017-11-13T18:29:14.056Z,82.20
2017-11-13T18:31:44.839Z,82.10
2017-11-13T18:34:14.461Z,82.60
2017-11-13T18:36:43.818Z,82.60
2017-11-13T18:39:15.967Z,82.80
2017-11-13T18:41:45.981Z,83.40
2017-11-13T18:44:15.242Z,83.10
2017-11-13T18:46:46.070Z,83.40
2017-11-13T18:49:16.141Z,83.40
2017-11-13T18:51:46.318Z,83.50
2017-11-13T18:54:16.326Z,83.20
2017-11-13T18:56:45.769Z,83.00
2017-11-13T18:59:18.000Z,83.50
2017-11-13T19:01:48.159Z,83.70
2017-11-13T19:04:17.632Z,83.80
2017-11-13T19:06:48.197Z,83.80
2017-11-13T19:09:18.336Z,83.80
2017-11-13T19:11:52.497Z,84.20
2017-11-13T19:14:23.110Z,83.60
2017-11-13T19:16:54.037Z,83.50
2017-11-13T19:19:24.183Z,83.50
2017-11-13T19:21:54.224Z,83.30
2017-11-13T19:24:32.955Z,82.90
2017-11-13T19:27:09.044Z,82.90
2017-11-13T19:29:41.914Z,82.30
2017-11-13T19:32:11.391Z,82.10
2017-11-13T19:34:42.212Z,82.00
2017-11-13T19:37:14.283Z,82.10
2017-11-13T19:39:45.068Z,82.20
2017-11-13T19:42:20.225Z,82.20
2017-11-13T19:44:50.440Z,82.30
2017-11-13T19:47:21.472Z,82.70
2017-11-13T19:49:52.113Z,82.70
2017-11-13T19:52:29.012Z,82.80
2017-11-13T19:55:07.725Z,83.20
2017-11-13T19:57:42.256Z,83.00
2017-11-13T20:00:13.810Z,83.00
2017-11-13T20:02:43.951Z,82.90
2017-11-13T20:05:14.388Z,83.40
2017-11-13T20:07:44.493Z,83.40
2017-11-13T20:10:15.520Z,83.60
2017-11-13T20:12:46.414Z,83.60
2017-11-13T20:15:15.902Z,83.40
2017-11-13T20:17:45.254Z,83.10
2017-11-13T20:20:15.627Z,83.60
2017-11-13T20:22:45.801Z,83.90
2017-11-13T20:25:16.601Z,84.10
2017-11-13T20:27:46.364Z,84.10
2017-11-13T20:30:16.294Z,84.00
2017-11-13T20:32:47.620Z,83.70
2017-11-13T20:35:19.524Z,83.80
2017-11-13T20:37:49.650Z,83.80
2017-11-13T20:40:19.701Z,84.10
2017-11-13T20:42:50.357Z,84.20
2017-11-13T20:45:20.464Z,83.90
2017-11-13T20:47:56.933Z,83.50
2017-11-13T20:50:28.017Z,83.20
2017-11-13T20:52:58.269Z,83.20
2017-11-13T20:55:28.136Z,83.20
2017-11-13T20:57:58.368Z,83.20
2017-11-13T21:00:28.370Z,83.50
2017-11-13T21:02:59.192Z,83.20
2017-11-13T21:05:28.940Z,83.30
2017-11-13T21:07:58.192Z,83.90
2017-11-13T21:10:34.733Z,84.10
2017-11-13T21:13:09.400Z,84.20
2017-11-13T21:15:39.049Z,84.20
2017-11-13T21:18:08.683Z,84.80
2017-11-13T21:20:37.941Z,85.80
2017-11-13T21:23:09.328Z,86.60
2017-11-13T21:25:38.968Z,86.60
2017-11-13T21:28:08.978Z,86.30
2017-11-13T21:30:44.766Z,86.60
2017-11-13T21:33:16.713Z,87.10
2017-11-13T21:35:45.947Z,87.20
2017-11-13T21:38:15.520Z,87.10
2017-11-13T21:40:44.896Z,87.40
2017-11-13T21:43:14.785Z,87.50
2017-11-13T21:45:46.238Z,87.10
2017-11-13T21:48:15.823Z,87.10
2017-11-13T21:50:45.954Z,87.40
2017-11-13T21:53:17.362Z,87.90
2017-11-13T21:55:46.973Z,87.90
2017-11-13T21:58:17.091Z,87.50
2017-11-13T22:00:46.787Z,87.60
2017-11-13T22:03:16.928Z,87.90
2017-11-13T22:05:48.019Z,88.30
2017-11-13T22:08:18.659Z,88.20
2017-11-13T22:10:48.357Z,88.60
2017-11-13T22:13:19.011Z,88.90
2017-11-13T22:15:49.216Z,89.50
2017-11-13T22:18:20.294Z,89.50
2017-11-13T22:20:50.913Z,89.70
2017-11-13T22:23:20.946Z,89.70
2017-11-13T22:25:50.246Z,90.00
2017-11-13T22:28:20.218Z,90.00
2017-11-13T22:30:55.995Z,90.00
2017-11-13T22:33:31.593Z,89.60
2017-11-13T22:36:01.594Z,88.80
2017-11-13T22:38:31.598Z,89.20
2017-11-13T22:41:01.629Z,89.10
2017-11-13T22:43:30.838Z,89.10
2017-11-13T22:45:59.893Z,89.00
2017-11-13T22:48:29.866Z,89.30
2017-11-13T22:50:59.153Z,89.80
2017-11-13T22:53:28.960Z,90.10
2017-11-13T22:55:58.182Z,90.30
2017-11-13T22:58:27.462Z,90.40
2017-11-13T23:00:57.171Z,90.40
2017-11-13T23:03:26.610Z,90.40
2017-11-13T23:05:58.324Z,90.40
2017-11-13T23:08:28.684Z,90.50
2017-11-13T23:10:58.491Z,90.80
2017-11-13T23:13:28.314Z,90.70
2017-11-13T23:15:57.536Z,90.90
2017-11-13T23:18:26.503Z,90.90
2017-11-13T23:20:55.532Z,91.00
2017-11-13T23:23:25.579Z,91.30
2017-11-13T23:25:55.557Z,91.10
2017-11-13T23:28:25.640Z,91.10
2017-11-13T23:30:54.761Z,91.10
2017-11-13T23:33:25.117Z,91.20
2017-11-13T23:35:55.221Z,91.30
2017-11-13T23:38:24.970Z,91.30
2017-11-13T23:40:55.429Z,91.50
2017-11-13T23:43:26.074Z,91.40
2017-11-13T23:45:55.366Z,91.50
2017-11-13T23:48:24.494Z,91.70
2017-11-13T23:50:53.597Z,91.60
2017-11-13T23:53:23.464Z,91.80
2017-11-13T23:55:52.997Z,91.80
2017-11-13T23:58:22.906Z,91.90
